This is the latest recevied weather packets stored in our database for station/object KD2FKI. If no packets are shown the sender has not sent any weather packets the latest 10 day(s).
| Time | Temp. | Humidity | Pressure | Rain* | Wind** | Luminosity | Snow |
|---|---|---|---|---|---|---|---|
| 1777845645 | 20° C | 28% | - | 0 mm | - | - | - |
| 1777845034 | 20° C | 29% | - | 0 mm | - | - | - |
| 1777844442 | 20.56° C | 28% | - | 0 mm | - | - | - |
| 1777843832 | 20.56° C | 27% | - | 0 mm | - | - | - |
| 1777843239 | 18.89° C | 30% | - | 0 mm | - | - | - |
| 1777842630 | 18.89° C | 30% | - | 0 mm | - | - | - |
| 1777842041 | 18.89° C | 31% | - | 0 mm | - | - | - |
| 1777841448 | 18.89° C | 30% | - | 0 mm | - | - | - |
| 1777840839 | 18.89° C | 31% | - | 0 mm | - | - | - |
| 1777840243 | 18.33° C | 31% | - | 0 mm | - | - | - |
| 1777839632 | 18.89° C | 31% | - | 0 mm | - | - | - |
| 1777839040 | 18.33° C | 32% | - | 0 mm | - | - | - |
| 1777838430 | 17.78° C | 32% | - | 0 mm | - | - | - |
| 1777837841 | 18.33° C | 32% | - | 0 mm | - | - | - |
| 1777837247 | 17.78° C | 33% | - | 0 mm | - | - | - |
| 1777836635 | 17.78° C | 33% | - | 0 mm | - | - | - |
| 1777836044 | 17.78° C | 33% | - | 0 mm | - | - | - |
| 1777835433 | 17.22° C | 35% | - | 0 mm | - | - | - |
| 1777834843 | 16.11° C | 35% | - | 0 mm | - | - | - |
| 1777834234 | 17.22° C | 35% | - | 0 mm | - | - | - |
| 1777833639 | 17.22° C | 35% | - | 0 mm | - | - | - |
| 1777833047 | 17.22° C | 36% | - | 0 mm | - | - | - |
| 1777832437 | 16.11° C | 37% | - | 0 mm | - | - | - |
| 1777831845 | 17.22° C | 35% | - | 0 mm | - | - | - |
| 1777831235 | 16.67° C | 38% | - | 0 mm | - | - | - |
* Rain latest hour (hover to see other rain measurements)
** Current wind speed in m/s (hover to see current wind gust speed)